Cruger, Mississippi
Current Conditions -  °F | °C
As of 2:53 AM on Saturday 22 Nov 2014 (Local Time) from KGWO Reporting Station
Broken Clouds Broken Clouds  
Wind Chill: 52°   Ceiling: 11000
Heat Index: 52°   Visibility: 10mi
Dew Point: 45°   Wind: 5mph
Humidity: 77%   Direction: 160°SSE
Pressure: 30.3"   Gusts: NA
Location:  33.32°N, 90.23°W
Report Text: KGWO 220853Z AUTO 16004KT 10SM BKN110 11/07 A3030 RMK AO2 SLP260 T01110072 53005 TSNO
Loading
Personal Weather Stations






























Interactive Weather Map New forecast layout! Learn more

10-Day Weather Forecast

Advertisements
Track Severe Weather on mobile